Weather at Alstar North Heliport

Public forecast

Using degrees Fahrenheit for public forecast. Weather courtesy of forecast.io.

Closest aviation weather report (METAR) to Alstar North Heliport

Closest report is Chautauqua County-Dunkirk Airport, 2.6 nm (4.8 km) ENE. Retrieved 2020/11/28 01:15 UTC (24 minutes ago):

KDKK 280115Z AUTO 22007KT 10SM BKN026 OVC031 08/04 A3001 RMK AO2 T00780039

Closest aviation forecast (TAF) to Alstar North Heliport

Closest forecast is Chautauqua County-Jamestown Airport, 20.0 nm (37.1 km) S. Retrieved 2020-11-28 00:42 UTC (57 minutes ago):

TAF KJHW 272339Z 2800/2824 28005KT P6SM OVC025 FM280400 28005KT P6SM -SHRA OVC020 FM281200 27011KT P6SM OVC015 FM281600 27010G18KT P6SM BKN020 FM281900 26009KT P6SM SCT040